Time;durP1;ratioP1;P1;durP2;ratioP2;P2;SDS_P1;SDS_P2;PMS_P1;PMS_P2;Temp;Humidity;BMP_temperature;BMP_pressure;BME280_temperature;BME280_humidity;BME280_pressure;Samples;Min_cycle;Max_cycle;Signal;HPM_P1;HPM_P2
2022/06/11 00:00:11;;;;;;;13.73;9.00;;;20.90;1.00;;;;;;5055823;28;20622;-77
2022/06/11 00:02:38;;;;;;;11.70;9.10;;;20.90;1.00;;;;;;5067045;28;20468;-77
2022/06/11 00:05:07;;;;;;;11.20;9.10;;;20.90;1.00;;;;;;5063696;28;21310;-78
2022/06/11 00:07:34;;;;;;;12.30;8.90;;;20.90;1.00;;;;;;5057921;28;20492;-76
2022/06/11 00:10:05;;;;;;;14.90;9.60;;;20.80;1.00;;;;;;5058093;28;20496;-77
2022/06/11 00:12:32;;;;;;;14.30;9.60;;;20.90;1.00;;;;;;5057585;28;20522;-75
2022/06/11 00:14:59;;;;;;;13.83;8.63;;;20.80;1.00;;;;;;5059508;28;20847;-76
2022/06/11 00:17:27;;;;;;;11.30;8.53;;;20.80;1.00;;;;;;5058698;28;20543;-77
2022/06/11 00:19:55;;;;;;;9.63;8.10;;;20.80;1.00;;;;;;5062519;28;20551;-77
2022/06/11 00:22:23;;;;;;;13.10;9.57;;;20.70;1.00;;;;;;5056558;28;20517;-76
2022/06/11 00:24:51;;;;;;;14.47;9.07;;;20.70;1.00;;;;;;5062341;28;20885;-77
2022/06/11 00:27:20;;;;;;;12.97;10.00;;;20.70;1.00;;;;;;5060665;28;20478;-77
2022/06/11 00:29:52;;;;;;;13.43;9.53;;;20.70;1.00;;;;;;5061130;28;20474;-76
2022/06/11 00:32:19;;;;;;;14.83;9.20;;;20.70;1.00;;;;;;5055941;28;20931;-77
2022/06/11 00:34:46;;;;;;;12.47;8.80;;;20.70;1.00;;;;;;5056654;28;20456;-76
2022/06/11 00:37:17;;;;;;;12.47;9.13;;;20.70;1.00;;;;;;5061925;28;20447;-77
2022/06/11 00:39:46;;;;;;;12.23;8.50;;;20.80;1.00;;;;;;5058513;28;20560;-76
2022/06/11 00:42:17;;;;;;;11.03;8.70;;;20.80;1.00;;;;;;5057967;28;20522;-77
2022/06/11 00:44:46;;;;;;;12.23;8.80;;;20.90;1.00;;;;;;5057494;28;21200;-76
2022/06/11 00:47:17;;;;;;;12.03;8.87;;;20.90;1.00;;;;;;5062378;28;20982;-76
2022/06/11 00:49:47;;;;;;;11.63;8.57;;;20.80;1.00;;;;;;5056395;28;20538;-76
2022/06/11 00:52:39;;;;;;;11.20;8.40;;;20.80;1.00;;;;;;5058542;28;20467;-77
2022/06/11 00:55:10;;;;;;;12.90;9.10;;;20.80;1.00;;;;;;5057125;28;20470;-77
2022/06/11 00:57:42;;;;;;;10.90;8.23;;;20.80;1.00;;;;;;5059085;28;20970;-76
2022/06/11 01:00:16;;;;;;;10.70;8.00;;;20.70;1.00;;;;;;5056385;28;20588;-78
2022/06/11 01:02:44;;;;;;;12.93;8.93;;;20.70;1.00;;;;;;5059044;28;20506;-77
2022/06/11 01:05:16;;;;;;;10.43;8.60;;;20.70;1.00;;;;;;5055601;28;20485;-76
2022/06/11 01:07:53;;;;;;;12.80;9.07;;;20.70;1.00;;;;;;5058106;28;20680;-76
2022/06/11 01:11:09;;;;;;;12.60;8.53;;;20.70;1.00;;;;;;5057670;28;20459;-76
2022/06/11 01:13:45;;;;;;;11.87;8.60;;;20.60;1.00;;;;;;5003384;28;21357;-76
2022/06/11 01:16:27;;;;;;;10.47;7.60;;;20.50;1.00;;;;;;5055843;28;20488;-76
2022/06/11 01:19:05;;;;;;;14.27;8.80;;;20.50;1.00;;;;;;5053765;28;20555;-76
2022/06/11 01:21:40;;;;;;;14.07;8.47;;;20.50;1.00;;;;;;5056725;28;20487;-76
2022/06/11 01:24:32;;;;;;;10.83;7.83;;;20.40;1.00;;;;;;5058290;28;20487;-76
2022/06/11 01:27:48;;;;;;;14.70;8.40;;;20.40;1.00;;;;;;5061998;28;20542;-76
2022/06/11 01:30:21;;;;;;;13.33;8.20;;;20.40;1.00;;;;;;5061758;28;20458;-76
2022/06/11 01:32:56;;;;;;;10.97;8.17;;;20.30;1.00;;;;;;5063244;28;20467;-76
2022/06/11 01:35:32;;;;;;;11.37;8.40;;;20.30;1.00;;;;;;5064131;28;20921;-77
2022/06/11 01:38:06;;;;;;;12.33;8.20;;;20.30;1.00;;;;;;5060804;28;20487;-76
2022/06/11 01:40:42;;;;;;;11.33;8.33;;;20.30;1.00;;;;;;5058233;28;21519;-75
2022/06/11 01:43:17;;;;;;;13.27;9.77;;;20.20;1.00;;;;;;5060037;28;20473;-76
2022/06/11 01:45:47;;;;;;;11.27;7.83;;;20.10;1.00;;;;;;5059992;28;20860;-76
2022/06/11 01:48:17;;;;;;;11.27;7.97;;;20.10;1.00;;;;;;5060860;28;20462;-76
2022/06/11 01:50:50;;;;;;;10.70;8.47;;;20.10;1.00;;;;;;5058107;28;20976;-76
2022/06/11 01:53:51;;;;;;;10.20;7.43;;;20.00;1.00;;;;;;5061525;28;20459;-77
2022/06/11 01:56:44;;;;;;;11.60;8.60;;;20.00;1.00;;;;;;5058422;28;20485;-78
2022/06/11 01:59:25;;;;;;;13.23;8.20;;;19.90;1.00;;;;;;5062521;28;20452;-77
2022/06/11 02:02:11;;;;;;;12.63;8.30;;;19.90;1.00;;;;;;5064465;28;20448;-78
2022/06/11 02:04:48;;;;;;;10.87;7.80;;;19.80;1.00;;;;;;5059609;28;20448;-78
2022/06/11 02:07:22;;;;;;;13.30;9.17;;;19.80;1.00;;;;;;5058815;28;20476;-77
2022/06/11 02:09:59;;;;;;;10.83;7.90;;;19.80;1.00;;;;;;5062446;28;20481;-78
2022/06/11 02:12:34;;;;;;;11.17;7.90;;;19.80;1.00;;;;;;5060818;28;20466;-79
2022/06/11 02:15:05;;;;;;;11.33;8.90;;;19.80;1.00;;;;;;5060405;28;21005;-78
2022/06/11 02:17:37;;;;;;;11.80;8.10;;;19.80;1.00;;;;;;5062101;28;20464;-78
2022/06/11 02:20:13;;;;;;;13.60;8.30;;;19.70;1.00;;;;;;5062793;28;20463;-78
2022/06/11 02:22:45;;;;;;;11.20;8.23;;;19.70;1.00;;;;;;5070110;28;20463;-77
2022/06/11 02:25:19;;;;;;;12.73;8.90;;;19.70;1.00;;;;;;5054475;28;20416;-77
2022/06/11 02:27:48;;;;;;;11.10;7.30;;;19.60;1.00;;;;;;5065150;28;21246;-79
2022/06/11 02:30:21;;;;;;;13.47;9.23;;;19.60;1.00;;;;;;5061592;28;20607;-77
2022/06/11 02:32:57;;;;;;;12.27;7.30;;;19.50;1.00;;;;;;5060246;28;20892;-78
2022/06/11 02:35:30;;;;;;;15.70;8.93;;;19.50;1.00;;;;;;5078135;28;20529;-78
2022/06/11 02:37:57;;;;;;;13.43;8.23;;;19.40;1.00;;;;;;5068823;28;20504;-77
2022/06/11 02:40:31;;;;;;;11.20;7.70;;;19.40;1.00;;;;;;5063902;28;20479;-77
2022/06/11 02:42:58;;;;;;;12.90;8.30;;;19.40;1.00;;;;;;5060914;28;20543;-76
2022/06/11 02:45:25;;;;;;;12.83;8.70;;;19.40;1.00;;;;;;5058391;28;20649;-77
2022/06/11 02:47:54;;;;;;;12.93;9.43;;;19.40;1.00;;;;;;5060606;28;20475;-78
2022/06/11 02:50:26;;;;;;;12.10;8.07;;;19.30;1.00;;;;;;5060241;28;20460;-78
2022/06/11 02:52:54;;;;;;;14.33;8.53;;;19.30;1.00;;;;;;5062769;28;20459;-78
2022/06/11 02:55:23;;;;;;;12.50;9.10;;;19.30;1.00;;;;;;5062488;28;20475;-78
2022/06/11 02:57:50;;;;;;;13.37;8.47;;;19.20;1.00;;;;;;5061042;28;20467;-78
2022/06/11 03:00:20;;;;;;;11.10;8.47;;;19.20;1.00;;;;;;5055132;28;20459;-78
2022/06/11 03:02:48;;;;;;;12.60;7.80;;;19.20;1.00;;;;;;5061923;28;20894;-78
2022/06/11 03:05:19;;;;;;;13.30;8.57;;;19.20;1.00;;;;;;5060952;28;20460;-78
2022/06/11 03:07:46;;;;;;;11.20;7.90;;;19.20;1.00;;;;;;5061711;28;20555;-78
2022/06/11 03:10:14;;;;;;;11.87;8.60;;;19.20;1.00;;;;;;5061332;28;21000;-78
2022/06/11 03:12:41;;;;;;;13.30;8.77;;;19.20;1.00;;;;;;5061112;28;20458;-79
2022/06/11 03:15:10;;;;;;;11.60;8.33;;;19.30;1.00;;;;;;5062083;28;20479;-79
2022/06/11 03:17:38;;;;;;;12.40;7.80;;;19.30;1.00;;;;;;5060530;28;20503;-78
2022/06/11 03:20:07;;;;;;;10.90;8.80;;;19.40;1.00;;;;;;5061808;28;20476;-78
2022/06/11 03:22:35;;;;;;;11.83;8.57;;;19.40;1.00;;;;;;5059975;28;21123;-78
2022/06/11 03:25:03;;;;;;;11.13;7.90;;;19.40;1.00;;;;;;5061581;28;20463;-77
2022/06/11 03:27:30;;;;;;;15.90;8.90;;;19.40;1.00;;;;;;5063876;28;20475;-77
2022/06/11 03:29:57;;;;;;;11.30;7.83;;;19.50;1.00;;;;;;5061059;28;20467;-78
2022/06/11 03:32:24;;;;;;;11.37;8.73;;;19.50;1.00;;;;;;5058158;28;20447;-78
2022/06/11 03:34:51;;;;;;;11.30;7.90;;;19.50;1.00;;;;;;5062634;28;20456;-77
2022/06/11 03:37:19;;;;;;;12.77;9.70;;;19.60;1.00;;;;;;5057722;28;20464;-77
2022/06/11 03:39:48;;;;;;;12.50;8.00;;;19.60;1.00;;;;;;5061086;28;20982;-78
2022/06/11 03:42:14;;;;;;;12.60;8.80;;;19.60;1.00;;;;;;5058807;28;20471;-79
2022/06/11 03:44:42;;;;;;;11.27;8.03;;;19.70;1.00;;;;;;5060355;28;20490;-78
2022/06/11 03:47:10;;;;;;;11.77;8.50;;;19.70;1.00;;;;;;5059634;28;20486;-78
2022/06/11 03:49:37;;;;;;;11.23;7.80;;;19.70;1.00;;;;;;5061802;28;20509;-78
2022/06/11 03:52:06;;;;;;;15.20;8.40;;;19.70;1.00;;;;;;5060304;28;20560;-78
2022/06/11 03:54:35;;;;;;;11.97;7.70;;;19.70;1.00;;;;;;5056816;28;20464;-77
2022/06/11 03:57:03;;;;;;;11.77;7.97;;;19.80;1.00;;;;;;5060521;28;20491;-77
2022/06/11 03:59:31;;;;;;;9.50;7.47;;;19.80;1.00;;;;;;5062327;28;20466;-77
2022/06/11 04:01:57;;;;;;;10.60;7.53;;;19.80;1.00;;;;;;5057048;28;21774;-77
2022/06/11 04:04:24;;;;;;;12.67;8.33;;;19.90;1.00;;;;;;5067138;28;20474;-77
2022/06/11 04:06:56;;;;;;;11.63;7.60;;;20.00;1.00;;;;;;5061195;28;20472;-77
2022/06/11 04:09:27;;;;;;;12.13;8.03;;;20.00;1.00;;;;;;5058722;28;20472;-77
2022/06/11 04:11:54;;;;;;;12.30;7.40;;;20.00;1.00;;;;;;5061012;28;20872;-77
2022/06/11 04:14:23;;;;;;;11.33;7.70;;;20.10;1.00;;;;;;5061967;28;20471;-77
2022/06/11 04:16:53;;;;;;;11.23;7.00;;;20.10;1.00;;;;;;5061191;28;20473;-77
2022/06/11 04:19:23;;;;;;;14.33;8.23;;;20.10;1.00;;;;;;5061107;28;20460;-78
2022/06/11 04:21:53;;;;;;;9.80;7.60;;;20.20;1.00;;;;;;5057960;28;20579;-77
2022/06/11 04:24:21;;;;;;;13.83;8.10;;;20.20;1.00;;;;;;5061568;28;20468;-77
2022/06/11 04:26:51;;;;;;;13.60;8.40;;;20.20;1.00;;;;;;5061357;28;21257;-77
2022/06/11 04:29:24;;;;;;;15.00;10.70;;;20.30;1.00;;;;;;5058509;28;20446;-77
2022/06/11 04:31:53;;;;;;;11.27;6.97;;;20.30;1.00;;;;;;5061672;28;20947;-78
2022/06/11 04:34:21;;;;;;;13.57;10.20;;;20.30;1.00;;;;;;5058910;28;20447;-78
2022/06/11 04:36:49;;;;;;;11.73;7.30;;;20.40;1.00;;;;;;5056786;28;20472;-79
2022/06/11 04:39:19;;;;;;;11.50;7.53;;;20.40;1.00;;;;;;5056428;28;20484;-78
2022/06/11 04:41:45;;;;;;;31.07;27.80;;;20.50;1.00;;;;;;5059993;28;20469;-77
2022/06/11 04:44:13;;;;;;;11.63;6.70;;;20.60;1.00;;;;;;5059720;28;20486;-77
2022/06/11 04:46:42;;;;;;;12.57;6.87;;;20.60;1.00;;;;;;5054727;28;20985;-76
2022/06/11 04:49:10;;;;;;;11.77;7.03;;;20.70;1.00;;;;;;5059217;28;20886;-77
2022/06/11 04:51:37;;;;;;;10.43;6.60;;;20.70;1.00;;;;;;5058853;28;20890;-76
2022/06/11 04:54:05;;;;;;;11.00;6.60;;;20.70;1.00;;;;;;5058945;28;20473;-77
2022/06/11 04:56:34;;;;;;;9.27;6.83;;;20.80;1.00;;;;;;5059483;28;20475;-76
2022/06/11 04:59:01;;;;;;;13.97;7.17;;;20.90;1.00;;;;;;5058769;28;20483;-77
2022/06/11 05:01:32;;;;;;;8.93;7.03;;;20.90;1.00;;;;;;5056262;28;20447;-78
2022/06/11 05:04:00;;;;;;;11.73;6.67;;;21.00;1.00;;;;;;5052975;28;20463;-78
2022/06/11 05:06:35;;;;;;;10.13;6.80;;;21.00;1.00;;;;;;5066202;28;20515;-77
2022/06/11 05:09:02;;;;;;;10.50;7.40;;;21.10;1.00;;;;;;5058694;28;20889;-77
2022/06/11 05:11:29;;;;;;;12.00;7.03;;;21.10;1.00;;;;;;5058273;28;20459;-77
2022/06/11 05:13:56;;;;;;;11.37;6.70;;;21.20;1.00;;;;;;5055462;28;20455;-77
2022/06/11 05:16:23;;;;;;;8.60;6.00;;;21.30;1.00;;;;;;5058244;28;20947;-77
2022/06/11 05:18:50;;;;;;;11.60;6.43;;;21.30;1.00;;;;;;5053622;28;20953;-78
2022/06/11 05:21:20;;;;;;;10.40;6.13;;;21.40;1.00;;;;;;5053639;28;20462;-77
2022/06/11 05:23:46;;;;;;;8.63;6.40;;;21.40;1.00;;;;;;5058583;28;20463;-78
2022/06/11 05:26:16;;;;;;;8.70;6.40;;;21.60;1.00;;;;;;5057316;28;20479;-78
2022/06/11 05:28:43;;;;;;;10.33;6.23;;;21.70;1.00;;;;;;5059819;28;21786;-78
2022/06/11 05:31:10;;;;;;;8.30;6.10;;;21.80;1.00;;;;;;5058705;28;20460;-77
2022/06/11 05:33:37;;;;;;;10.90;6.40;;;21.90;1.00;;;;;;5063805;28;20471;-77
2022/06/11 05:36:06;;;;;;;8.50;5.27;;;22.00;1.00;;;;;;5056721;28;20474;-77
2022/06/11 05:38:35;;;;;;;8.57;5.43;;;22.10;1.00;;;;;;5057940;28;22528;-76
2022/06/11 05:41:02;;;;;;;8.40;5.50;;;22.10;1.00;;;;;;5058512;28;20554;-78
2022/06/11 05:43:29;;;;;;;9.90;5.30;;;22.10;1.00;;;;;;5060621;28;20460;-78
2022/06/11 05:46:05;;;;;;;13.43;10.00;;;22.20;1.00;;;;;;5058361;28;20472;-79
2022/06/11 05:48:37;;;;;;;10.47;6.10;;;22.30;1.00;;;;;;5060354;28;20456;-78
2022/06/11 05:51:05;;;;;;;11.47;5.67;;;22.40;1.00;;;;;;5056174;28;20472;-76
2022/06/11 05:53:38;;;;;;;13.67;7.80;;;22.60;1.00;;;;;;5056145;28;20458;-77
2022/06/11 05:56:06;;;;;;;13.23;6.30;;;22.60;1.00;;;;;;5057289;28;21003;-77
2022/06/11 05:58:38;;;;;;;9.03;4.80;;;22.80;1.00;;;;;;5053384;28;21712;-78
2022/06/11 06:01:07;;;;;;;8.93;5.20;;;22.90;1.00;;;;;;5058326;28;20916;-77
2022/06/11 06:03:34;;;;;;;8.50;4.20;;;22.90;1.00;;;;;;5060278;28;20606;-78
2022/06/11 06:06:01;;;;;;;9.77;5.03;;;22.90;1.00;;;;;;5058740;28;20866;-78
2022/06/11 06:08:27;;;;;;;11.53;4.77;;;22.90;1.00;;;;;;5061739;28;20906;-78
2022/06/11 06:10:57;;;;;;;8.53;4.47;;;23.00;1.00;;;;;;5064796;28;20839;-78
2022/06/11 06:16:08;;;;;;;7.20;3.93;;;23.10;1.00;;;;;;5059181;28;20537;-77
2022/06/11 06:18:35;;;;;;;9.37;4.70;;;23.10;1.00;;;;;;5063269;28;20452;-78
2022/06/11 06:21:02;;;;;;;8.50;4.90;;;23.20;1.00;;;;;;5066941;28;21026;-77
2022/06/11 06:23:32;;;;;;;8.43;4.90;;;23.30;1.00;;;;;;5065177;28;20602;-78
2022/06/11 06:26:01;;;;;;;11.60;4.50;;;23.40;1.00;;;;;;5064444;28;20554;-78
2022/06/11 06:28:28;;;;;;;13.50;4.97;;;23.50;1.00;;;;;;5063471;28;20470;-80
2022/06/11 06:30:58;;;;;;;9.47;4.20;;;23.60;1.00;;;;;;5064851;28;20474;-78
2022/06/11 06:33:25;;;;;;;10.73;5.03;;;23.70;1.00;;;;;;5061400;28;20551;-78
2022/06/11 06:35:52;;;;;;;11.47;4.90;;;23.80;1.00;;;;;;5056987;28;20608;-77
2022/06/11 06:38:19;;;;;;;8.73;4.30;;;23.90;1.00;;;;;;5061211;28;20454;-77
2022/06/11 06:40:47;;;;;;;11.13;5.07;;;23.90;1.00;;;;;;5065300;28;20475;-78
2022/06/11 06:43:15;;;;;;;10.10;4.50;;;24.00;1.00;;;;;;5063364;28;20466;-77
2022/06/11 06:45:43;;;;;;;11.20;4.77;;;24.00;1.00;;;;;;5061642;28;20460;-78
2022/06/11 06:48:10;;;;;;;11.13;5.57;;;24.00;1.00;;;;;;5062897;28;20462;-77
2022/06/11 06:50:38;;;;;;;11.53;5.30;;;24.10;1.00;;;;;;5063570;28;20920;-78
2022/06/11 06:53:05;;;;;;;9.80;4.40;;;24.30;1.00;;;;;;5066206;28;20547;-78
2022/06/11 06:55:33;;;;;;;9.03;4.40;;;24.30;1.00;;;;;;5057987;28;20517;-76
2022/06/11 06:58:00;;;;;;;7.50;3.40;;;24.50;1.00;;;;;;5061012;28;20459;-77
2022/06/11 07:00:28;;;;;;;8.87;4.57;;;24.60;1.00;;;;;;5056629;28;20483;-76
2022/06/11 07:02:57;;;;;;;9.83;4.63;;;24.60;1.00;;;;;;5068623;28;20557;-78
2022/06/11 07:05:26;;;;;;;10.63;4.93;;;24.70;1.00;;;;;;5069494;28;20444;-80
2022/06/11 07:07:54;;;;;;;8.40;4.53;;;24.80;1.00;;;;;;5068669;28;20424;-79
2022/06/11 07:10:23;;;;;;;7.87;4.00;;;24.90;1.00;;;;;;5067706;28;20428;-79
2022/06/11 07:12:50;;;;;;;10.20;4.10;;;25.00;1.00;;;;;;5063294;28;21699;-79
2022/06/11 07:15:18;;;;;;;8.07;4.20;;;24.90;1.00;;;;;;5070790;28;20508;-79
2022/06/11 07:17:50;;;;;;;8.90;4.30;;;25.00;1.00;;;;;;5069804;28;20914;-79
2022/06/11 07:20:22;;;;;;;8.10;3.90;;;25.10;1.00;;;;;;5065521;28;20459;-79
2022/06/11 07:22:55;;;;;;;9.00;4.20;;;25.20;1.00;;;;;;5072783;28;20459;-79
2022/06/11 07:25:34;;;;;;;7.87;4.30;;;25.30;1.00;;;;;;5073367;28;20570;-79
2022/06/11 07:28:07;;;;;;;9.13;4.20;;;25.40;1.00;;;;;;5074352;28;20454;-79
2022/06/11 07:30:39;;;;;;;8.20;4.27;;;25.50;1.00;;;;;;5073813;28;20447;-79
2022/06/11 07:33:12;;;;;;;7.93;3.60;;;25.70;1.00;;;;;;5076027;28;20415;-78
2022/06/11 07:35:39;;;;;;;8.70;4.20;;;25.80;1.00;;;;;;5063114;28;20463;-81
2022/06/11 07:38:11;;;;;;;9.30;3.93;;;25.90;1.00;;;;;;5071463;28;20466;-79
2022/06/11 07:40:39;;;;;;;7.00;3.97;;;25.90;1.00;;;;;;5078299;28;20430;-78
2022/06/11 07:43:09;;;;;;;7.47;3.90;;;26.10;1.00;;;;;;5073451;28;20456;-79
2022/06/11 07:45:37;;;;;;;8.20;3.70;;;26.00;1.00;;;;;;5072412;28;20446;-80
2022/06/11 07:48:05;;;;;;;7.80;3.37;;;25.90;1.00;;;;;;5074079;28;20435;-80
2022/06/11 07:50:39;;;;;;;8.57;4.10;;;25.90;1.00;;;;;;5071717;28;20559;-80
2022/06/11 07:53:07;;;;;;;9.70;5.53;;;25.80;1.00;;;;;;5071020;28;21206;-78
2022/06/11 07:55:37;;;;;;;8.57;4.00;;;25.90;1.00;;;;;;5072486;28;20562;-78
2022/06/11 07:58:04;;;;;;;8.20;3.27;;;25.90;1.00;;;;;;5077449;28;20480;-80
2022/06/11 08:00:35;;;;;;;9.07;4.07;;;25.90;1.00;;;;;;5076867;28;20432;-80
2022/06/11 08:03:02;;;;;;;7.60;4.00;;;25.90;1.00;;;;;;5076379;28;20492;-79
2022/06/11 08:05:29;;;;;;;9.90;3.87;;;25.90;1.00;;;;;;5066279;28;20518;-80
2022/06/11 08:07:57;;;;;;;7.23;3.53;;;25.90;1.00;;;;;;5063227;28;20973;-80
2022/06/11 08:10:27;;;;;;;7.10;3.43;;;25.90;1.00;;;;;;5066462;28;20555;-79
2022/06/11 08:12:55;;;;;;;8.20;3.63;;;25.90;1.00;;;;;;5064217;28;20468;-78
2022/06/11 08:15:22;;;;;;;10.00;3.97;;;25.90;1.00;;;;;;5062698;28;20602;-80
2022/06/11 08:17:49;;;;;;;10.37;3.40;;;26.20;1.00;;;;;;5066506;28;20937;-79
2022/06/11 08:20:20;;;;;;;8.70;3.97;;;26.40;1.00;;;;;;5059384;28;20460;-80
2022/06/11 08:22:48;;;;;;;7.53;3.23;;;26.70;1.00;;;;;;5059363;28;20473;-78
2022/06/11 08:25:17;;;;;;;8.97;3.27;;;26.80;1.00;;;;;;5071023;28;20451;-78
2022/06/11 08:27:44;;;;;;;8.00;3.50;;;26.90;1.00;;;;;;5061448;28;20460;-81
2022/06/11 08:30:16;;;;;;;8.20;3.93;;;27.00;1.00;;;;;;5063632;28;20471;-77
2022/06/11 08:32:44;;;;;;;7.40;3.33;;;27.00;1.00;;;;;;5062331;28;20918;-77
2022/06/11 08:35:15;;;;;;;7.60;3.70;;;27.10;1.00;;;;;;5061133;28;20471;-76
2022/06/11 08:37:45;;;;;;;8.47;3.57;;;27.20;1.00;;;;;;5065368;28;20594;-76
2022/06/11 08:40:20;;;;;;;8.90;3.20;;;27.20;1.00;;;;;;5054900;28;20460;-77
2022/06/11 08:42:52;;;;;;;7.43;3.80;;;27.30;1.00;;;;;;5057523;28;20851;-77
2022/06/11 08:45:22;;;;;;;8.60;3.60;;;27.50;1.00;;;;;;5056535;28;20455;-77
2022/06/11 08:47:51;;;;;;;9.50;3.10;;;27.60;1.00;;;;;;5059460;28;20474;-78
2022/06/11 08:50:26;;;;;;;6.97;3.23;;;27.70;1.00;;;;;;5061499;28;20491;-77
2022/06/11 08:52:53;;;;;;;10.17;3.40;;;27.80;1.00;;;;;;5064250;28;20454;-77
2022/06/11 08:55:24;;;;;;;9.30;3.70;;;27.60;1.00;;;;;;5060307;28;20864;-78
2022/06/11 08:58:06;;;;;;;6.80;3.80;;;27.70;1.00;;;;;;5062140;28;21094;-76
2022/06/11 09:00:45;;;;;;;9.47;3.43;;;27.80;1.00;;;;;;5059833;28;20845;-76
2022/06/11 09:03:21;;;;;;;15.50;3.13;;;27.90;1.00;;;;;;5060323;28;20460;-76
2022/06/11 09:06:18;;;;;;;7.83;3.10;;;27.80;1.00;;;;;;5052645;28;20518;-75
2022/06/11 09:08:55;;;;;;;10.53;3.40;;;28.00;1.00;;;;;;5050306;28;20456;-76
2022/06/11 09:11:40;;;;;;;6.50;3.17;;;28.20;1.00;;;;;;5056261;28;20553;-80
2022/06/11 09:14:39;;;;;;;6.40;2.47;;;28.40;1.00;;;;;;5061367;28;20424;-77
2022/06/11 09:17:21;;;;;;;6.73;3.20;;;29.00;1.00;;;;;;5049990;28;21074;-77
2022/06/11 09:20:04;;;;;;;8.00;2.70;;;29.50;1.00;;;;;;5062311;28;20551;-76
2022/06/11 09:22:47;;;;;;;9.90;3.20;;;29.70;1.00;;;;;;5072400;28;20513;-77
2022/06/11 09:25:35;;;;;;;7.03;2.30;;;29.90;1.00;;;;;;5061325;28;20529;-76
2022/06/11 09:28:10;;;;;;;10.83;3.27;;;30.00;1.00;;;;;;5064115;28;20485;-77
2022/06/11 09:30:47;;;;;;;6.90;2.87;;;30.00;1.00;;;;;;5061639;28;20459;-76
2022/06/11 09:33:24;;;;;;;5.90;2.80;;;29.90;1.00;;;;;;5064150;28;20515;-77
2022/06/11 09:35:59;;;;;;;8.57;2.47;;;29.70;1.00;;;;;;5061643;28;20958;-78
2022/06/11 09:38:35;;;;;;;7.07;3.00;;;29.60;1.00;;;;;;5062000;28;20665;-76
2022/06/11 09:41:13;;;;;;;7.03;3.13;;;29.70;1.00;;;;;;5062964;28;20531;-77
2022/06/11 09:43:48;;;;;;;7.00;2.60;;;29.70;1.00;;;;;;5061747;28;20639;-77
2022/06/11 09:46:21;;;;;;;6.30;2.83;;;29.80;1.00;;;;;;5064596;28;20896;-77
2022/06/11 09:49:05;;;;;;;8.93;2.70;;;30.00;1.00;;;;;;5050139;28;20487;-77
2022/06/11 09:51:39;;;;;;;7.83;2.50;;;30.80;1.00;;;;;;5068511;28;20467;-78
2022/06/11 09:54:31;;;;;;;8.73;3.30;;;31.90;1.00;;;;;;5063875;28;20915;-77
2022/06/11 09:57:12;;;;;;;6.60;2.00;;;33.00;1.00;;;;;;5071867;28;20443;-79
2022/06/11 09:59:45;;;;;;;6.40;2.13;;;34.40;1.00;;;;;;5065646;28;20535;-77
2022/06/11 10:02:23;;;;;;;7.83;2.47;;;34.90;1.00;;;;;;5067001;28;20535;-78
2022/06/11 10:04:50;;;;;;;6.67;2.77;;;34.70;1.00;;;;;;5063830;28;20942;-77
2022/06/11 10:07:22;;;;;;;9.90;2.80;;;34.30;1.00;;;;;;5063706;28;20548;-79
2022/06/11 10:09:56;;;;;;;6.80;2.13;;;33.80;1.00;;;;;;5065920;28;20577;-78
2022/06/11 10:12:28;;;;;;;5.67;1.90;;;33.50;1.00;;;;;;5058708;28;20542;-77
2022/06/11 10:15:01;;;;;;;6.63;2.40;;;33.00;1.00;;;;;;5066645;28;20891;-77
2022/06/11 10:17:34;;;;;;;6.03;2.10;;;33.10;1.00;;;;;;5062843;28;20532;-76
2022/06/11 10:20:07;;;;;;;9.80;2.23;;;34.10;1.00;;;;;;5063643;28;20993;-77
2022/06/11 10:22:42;;;;;;;9.00;6.60;;;35.20;1.00;;;;;;5065090;28;21016;-78
2022/06/11 10:25:20;;;;;;;4.83;2.00;;;35.80;1.00;;;;;;5058316;28;20459;-77
2022/06/11 10:27:50;;;;;;;8.27;2.70;;;36.20;1.00;;;;;;5067064;28;20498;-77
2022/06/11 10:30:44;;;;;;;5.73;2.60;;;35.60;1.00;;;;;;5064046;28;20890;-77
2022/06/11 10:33:19;;;;;;;6.30;2.17;;;35.30;1.00;;;;;;5062982;28;20453;-77
2022/06/11 10:35:50;;;;;;;4.77;2.10;;;36.80;1.00;;;;;;5066683;28;20482;-77
2022/06/11 10:38:29;;;;;;;4.70;1.60;;;38.00;1.00;;;;;;5051706;28;20544;-77
2022/06/11 10:40:58;;;;;;;7.93;1.93;;;38.00;1.00;;;;;;5064920;28;20566;-77
2022/06/11 10:43:33;;;;;;;5.40;2.17;;;37.10;1.00;;;;;;5056105;28;20455;-77
2022/06/11 10:46:02;;;;;;;6.30;2.20;;;36.10;1.00;;;;;;5076209;28;20555;-78
2022/06/11 10:48:34;;;;;;;6.70;2.30;;;35.50;1.00;;;;;;5063424;27;20450;-77
2022/06/11 10:51:05;;;;;;;9.20;2.40;;;35.70;1.00;;;;;;5066681;28;20482;-77
2022/06/11 10:53:38;;;;;;;9.53;3.40;;;35.60;1.00;;;;;;5055824;28;20505;-76
2022/06/11 10:56:12;;;;;;;4.97;1.50;;;35.30;1.00;;;;;;5063825;28;20994;-76
2022/06/11 10:58:43;;;;;;;4.40;1.40;;;34.90;1.00;;;;;;5064956;28;20915;-77
2022/06/11 11:01:17;;;;;;;5.00;1.80;;;34.10;1.00;;;;;;5056704;28;20471;-76
2022/06/11 11:03:48;;;;;;;7.33;1.73;;;33.40;1.00;;;;;;5053193;28;20474;-78
2022/06/11 11:06:26;;;;;;;4.83;1.60;;;32.80;1.00;;;;;;5059626;28;20525;-78
2022/06/11 11:08:58;;;;;;;6.10;2.13;;;32.40;1.00;;;;;;5062532;28;20459;-76
2022/06/11 11:11:27;;;;;;;6.17;2.00;;;32.70;1.00;;;;;;5063797;28;20966;-76
2022/06/11 11:14:05;;;;;;;5.40;1.60;;;33.20;1.00;;;;;;5063792;28;20462;-77
2022/06/11 11:16:39;;;;;;;5.70;2.03;;;33.10;1.00;;;;;;5058928;28;20806;-77
2022/06/11 11:19:15;;;;;;;6.70;1.80;;;32.70;1.00;;;;;;5056020;28;20543;-76
2022/06/11 11:21:52;;;;;;;6.03;1.93;;;32.10;1.00;;;;;;5063097;28;20552;-77
2022/06/11 11:24:23;;;;;;;5.83;1.73;;;31.20;1.00;;;;;;5060799;28;20868;-77
2022/06/11 11:26:56;;;;;;;5.73;2.07;;;30.70;1.00;;;;;;5063151;28;20749;-77
2022/06/11 11:29:28;;;;;;;6.60;1.73;;;30.40;1.00;;;;;;5062150;28;20459;-77
2022/06/11 11:31:58;;;;;;;5.57;2.00;;;30.20;1.00;;;;;;5062437;28;20481;-77
2022/06/11 11:34:27;;;;;;;7.33;2.30;;;30.50;1.00;;;;;;5062803;28;20458;-77
2022/06/11 11:36:59;;;;;;;7.63;2.60;;;31.00;1.00;;;;;;5063724;28;20917;-77
2022/06/11 11:39:29;;;;;;;5.97;2.33;;;32.30;1.00;;;;;;5062977;28;20487;-78
2022/06/11 11:42:23;;;;;;;8.60;2.53;;;32.90;1.00;;;;;;5068161;28;20483;-77
2022/06/11 11:44:57;;;;;;;5.20;2.10;;;32.70;1.00;;;;;;5041314;28;20456;-77
2022/06/11 11:47:30;;;;;;;6.33;1.90;;;31.90;1.00;;;;;;5064813;28;20467;-77
2022/06/11 11:50:17;;;;;;;5.23;1.50;;;32.30;1.00;;;;;;5056659;28;20500;-78
2022/06/11 11:52:46;;;;;;;5.97;2.33;;;33.50;1.00;;;;;;5063864;28;20917;-77
2022/06/11 11:55:19;;;;;;;7.80;2.03;;;33.90;1.00;;;;;;5065832;28;20614;-77
2022/06/11 11:57:54;;;;;;;5.17;1.70;;;33.20;1.00;;;;;;5060052;28;20548;-76
2022/06/11 12:00:28;;;;;;;6.30;2.23;;;34.40;1.00;;;;;;5060550;28;20475;-77
2022/06/11 12:03:00;;;;;;;6.60;2.17;;;34.90;1.00;;;;;;5067690;28;20479;-76
2022/06/11 12:05:38;;;;;;;5.97;2.00;;;34.40;1.00;;;;;;5062942;28;20550;-78
2022/06/11 12:08:18;;;;;;;8.10;2.57;;;33.70;1.00;;;;;;5066792;28;20467;-77
2022/06/11 12:10:48;;;;;;;5.53;2.13;;;32.70;1.00;;;;;;5064026;28;20468;-76
2022/06/11 12:13:26;;;;;;;7.27;2.30;;;32.10;1.00;;;;;;5062813;28;20991;-77
2022/06/11 12:15:57;;;;;;;6.17;2.20;;;32.10;1.00;;;;;;5057660;28;20464;-77
2022/06/11 12:18:31;;;;;;;5.93;2.07;;;31.90;1.00;;;;;;5060478;28;20463;-76
2022/06/11 12:21:02;;;;;;;5.97;2.10;;;31.80;1.00;;;;;;5063869;28;20969;-77
2022/06/11 12:23:34;;;;;;;5.83;2.43;;;31.40;1.00;;;;;;5073913;28;20556;-78
2022/06/11 12:26:05;;;;;;;5.27;1.83;;;31.30;1.00;;;;;;5063434;28;20456;-78
2022/06/11 12:28:36;;;;;;;5.87;2.20;;;31.00;1.00;;;;;;5064977;28;20475;-78
2022/06/11 12:31:04;;;;;;;5.80;2.10;;;30.80;1.00;;;;;;5063371;28;20452;-78
2022/06/11 12:33:43;;;;;;;5.83;2.13;;;30.50;1.00;;;;;;5062709;28;20479;-77
2022/06/11 12:36:18;;;;;;;6.43;1.97;;;30.20;1.00;;;;;;5063400;28;20478;-77
2022/06/11 12:38:53;;;;;;;6.80;1.87;;;30.00;1.00;;;;;;5063243;28;20452;-76
2022/06/11 12:41:38;;;;;;;6.80;1.97;;;29.90;1.00;;;;;;5063770;28;20471;-76
2022/06/11 12:44:32;;;;;;;6.50;2.30;;;29.70;1.00;;;;;;5060289;28;20490;-77
2022/06/11 12:47:07;;;;;;;7.00;2.57;;;29.60;1.00;;;;;;5061083;28;20452;-76
2022/06/11 12:49:43;;;;;;;7.57;2.67;;;29.20;1.00;;;;;;5056158;28;20609;-77
2022/06/11 12:52:21;;;;;;;7.47;2.40;;;28.90;1.00;;;;;;5061473;28;20882;-78
2022/06/11 12:55:07;;;;;;;7.53;2.90;;;28.80;1.00;;;;;;5067493;28;20474;-77
2022/06/11 12:57:49;;;;;;;8.90;2.70;;;28.70;1.00;;;;;;5062952;28;20451;-76
2022/06/11 13:00:40;;;;;;;8.93;3.60;;;28.70;1.00;;;;;;5061364;28;20470;-76
2022/06/11 13:03:19;;;;;;;9.03;3.23;;;28.70;1.00;;;;;;5061949;28;20468;-77
2022/06/11 13:06:08;;;;;;;7.70;3.10;;;28.50;1.00;;;;;;5062888;28;20434;-77
2022/06/11 13:08:54;;;;;;;11.03;3.70;;;28.50;1.00;;;;;;5059897;28;20610;-77
2022/06/11 13:11:35;;;;;;;8.13;3.50;;;28.40;1.00;;;;;;5060741;28;20495;-78
2022/06/11 13:14:23;;;;;;;9.37;3.80;;;28.20;1.00;;;;;;5057876;28;20479;-76
2022/06/11 13:17:03;;;;;;;6.37;2.57;;;28.20;1.00;;;;;;5059542;28;20471;-76
2022/06/11 13:19:40;;;;;;;6.97;2.60;;;28.40;1.00;;;;;;5061893;28;20606;-76
2022/06/11 13:22:19;;;;;;;7.97;3.77;;;28.80;1.00;;;;;;5066635;28;20466;-78